createdAt,value
2023-02-12T00:00:55.847Z,6.8
2023-02-12T00:01:59.406Z,6.8
2023-02-12T00:03:01.919Z,6.8
2023-02-12T00:04:04.976Z,6.8
2023-02-12T00:05:08.707Z,6.8
2023-02-12T00:06:16.773Z,6.8
2023-02-12T00:07:19.947Z,6.8
2023-02-12T00:08:22.762Z,6.8
2023-02-12T00:09:25.583Z,6.8
2023-02-12T00:10:29.410Z,6.8
2023-02-12T00:11:32.833Z,6.8
2023-02-12T00:12:35.645Z,6.8
2023-02-12T00:13:39.365Z,6.8
2023-02-12T00:14:42.555Z,6.8
2023-02-12T00:15:46.250Z,6.8
2023-02-12T00:16:49.676Z,6.9
2023-02-12T00:17:52.720Z,6.9
2023-02-12T00:18:56.068Z,6.8
2023-02-12T00:19:59.485Z,6.8
2023-02-12T00:21:03.247Z,6.9
2023-02-12T00:22:06.636Z,6.9
2023-02-12T00:23:09.641Z,6.9
2023-02-12T00:24:12.428Z,6.8
2023-02-12T00:25:15.593Z,6.8
2023-02-12T00:26:18.556Z,6.8
2023-02-12T00:27:21.692Z,6.9
2023-02-12T00:28:25.203Z,6.9
2023-02-12T00:29:28.082Z,6.9
2023-02-12T00:30:31.683Z,6.9
2023-02-12T00:31:35.161Z,7
2023-02-12T00:32:38.568Z,7
2023-02-12T00:33:42.001Z,7
2023-02-12T00:34:44.555Z,7
2023-02-12T00:35:47.884Z,7
2023-02-12T00:36:51.905Z,7
2023-02-12T00:37:54.719Z,7
2023-02-12T00:38:57.520Z,7
2023-02-12T00:40:00.878Z,7
2023-02-12T00:41:04.655Z,7
2023-02-12T00:42:08.084Z,6.9
2023-02-12T00:43:11.012Z,6.9
2023-02-12T00:44:14.790Z,6.9
2023-02-12T00:45:17.857Z,6.8
2023-02-12T00:46:21.583Z,6.8
2023-02-12T00:47:25.409Z,6.8
2023-02-12T00:48:28.764Z,6.8
2023-02-12T00:49:32.301Z,6.8
2023-02-12T00:50:35.684Z,6.8
2023-02-12T00:51:38.865Z,6.8
2023-02-12T00:52:42.607Z,6.7
2023-02-12T00:53:45.377Z,6.8
2023-02-12T00:54:48.712Z,6.8
2023-02-12T00:55:52.057Z,6.8
2023-02-12T00:56:55.083Z,6.8
2023-02-12T00:57:58.443Z,6.8
2023-02-12T00:59:01.788Z,6.8
2023-02-12T01:00:04.777Z,6.8
2023-02-12T01:01:08.104Z,6.8
2023-02-12T01:02:11.662Z,6.8
2023-02-12T01:03:15.296Z,6.8
2023-02-12T01:04:18.180Z,6.8
2023-02-12T01:05:21.501Z,6.8
2023-02-12T01:06:24.558Z,6.8
2023-02-12T01:07:27.675Z,6.8
2023-02-12T01:08:31.083Z,6.8
2023-02-12T01:09:33.891Z,6.8
2023-02-12T01:10:37.626Z,6.8
2023-02-12T01:11:40.675Z,6.8
2023-02-12T01:12:43.871Z,6.8
2023-02-12T01:13:47.612Z,6.8
2023-02-12T01:14:51.019Z,6.8
2023-02-12T01:15:56.441Z,6.8
2023-02-12T01:16:59.942Z,6.8
2023-02-12T01:18:02.807Z,6.8
2023-02-12T01:19:05.537Z,6.8
2023-02-12T01:20:08.777Z,6.8
2023-02-12T01:21:11.357Z,6.8
2023-02-12T01:22:15.029Z,6.8
2023-02-12T01:23:17.466Z,6.8
2023-02-12T01:24:20.945Z,6.8
2023-02-12T01:25:24.016Z,6.8
2023-02-12T01:26:27.219Z,6.8
2023-02-12T01:27:31.049Z,6.8
2023-02-12T01:28:34.072Z,6.8
2023-02-12T01:29:37.230Z,6.8
2023-02-12T01:30:40.301Z,6.9
2023-02-12T01:31:45.087Z,6.8
2023-02-12T01:32:48.120Z,6.8
2023-02-12T01:33:51.226Z,6.8
2023-02-12T01:34:54.370Z,6.8
2023-02-12T01:35:58.469Z,6.8
2023-02-12T01:37:02.181Z,6.8
2023-02-12T01:38:04.972Z,6.8
2023-02-12T01:39:07.781Z,6.8
2023-02-12T01:40:11.582Z,6.8
2023-02-12T01:41:14.964Z,6.8
2023-02-12T01:42:18.292Z,6.9
2023-02-12T01:43:21.354Z,6.8
2023-02-12T01:44:24.396Z,6.8
2023-02-12T01:45:27.544Z,6.9
2023-02-12T01:46:31.778Z,6.9
2023-02-12T01:47:34.926Z,6.9
2023-02-12T01:48:38.329Z,6.9
2023-02-12T01:49:41.749Z,6.9
2023-02-12T01:50:44.814Z,6.9
2023-02-12T01:51:47.886Z,6.9
2023-02-12T01:52:51.978Z,6.9
2023-02-12T01:53:55.339Z,6.9
2023-02-12T01:54:58.901Z,6.9
2023-02-12T01:56:02.640Z,6.9
2023-02-12T01:57:05.838Z,6.9
2023-02-12T01:58:09.530Z,7
2023-02-12T01:59:12.027Z,6.9
2023-02-12T02:00:15.334Z,6.9
2023-02-12T02:01:19.068Z,6.9
2023-02-12T02:02:22.598Z,6.9
2023-02-12T02:03:26.102Z,6.9
2023-02-12T02:04:29.245Z,6.9
2023-02-12T02:05:31.760Z,7
2023-02-12T02:06:34.557Z,7
2023-02-12T02:07:37.909Z,7
2023-02-12T02:08:41.271Z,7
2023-02-12T02:09:44.333Z,7
2023-02-12T02:10:47.431Z,7
2023-02-12T02:11:51.172Z,7
2023-02-12T02:12:53.702Z,7
2023-02-12T02:13:56.587Z,7
2023-02-12T02:15:00.636Z,7
2023-02-12T02:16:03.718Z,7
2023-02-12T02:17:07.834Z,7
2023-02-12T02:18:11.913Z,7
2023-02-12T02:19:15.283Z,7
2023-02-12T02:20:18.034Z,7
2023-02-12T02:21:20.806Z,7
2023-02-12T02:22:23.854Z,6.9
2023-02-12T02:23:27.162Z,6.9
2023-02-12T02:24:30.591Z,6.9
2023-02-12T02:25:33.696Z,6.9
2023-02-12T02:26:36.956Z,6.9
2023-02-12T02:27:40.463Z,6.9
2023-02-12T02:28:43.726Z,6.9
2023-02-12T02:29:47.491Z,6.9
2023-02-12T02:30:50.422Z,6.9
2023-02-12T02:31:53.994Z,6.9
2023-02-12T02:32:57.553Z,6.9
2023-02-12T02:34:01.110Z,6.9
2023-02-12T02:35:04.182Z,6.9
2023-02-12T02:36:07.572Z,6.9
2023-02-12T02:37:10.559Z,6.9
2023-02-12T02:38:14.164Z,6.9
2023-02-12T02:39:16.474Z,6.9
2023-02-12T02:40:19.558Z,6.9
2023-02-12T02:41:22.067Z,6.9
2023-02-12T02:42:25.786Z,6.9
2023-02-12T02:43:28.639Z,6.9
2023-02-12T02:44:31.409Z,6.9
2023-02-12T02:45:33.931Z,6.9
2023-02-12T02:46:37.110Z,6.9
2023-02-12T02:47:40.532Z,6.9
2023-02-12T02:48:43.898Z,6.8
2023-02-12T02:49:47.039Z,6.8
2023-02-12T02:50:50.725Z,6.8
2023-02-12T02:51:53.951Z,6.9
2023-02-12T02:52:57.018Z,6.9
2023-02-12T02:54:00.304Z,6.9
2023-02-12T02:55:03.356Z,6.9
2023-02-12T02:56:07.050Z,6.9
2023-02-12T02:57:10.138Z,6.9
2023-02-12T02:58:13.494Z,6.9
2023-02-12T02:59:16.703Z,6.9
2023-02-12T03:00:19.326Z,6.9
2023-02-12T03:01:22.623Z,6.9
2023-02-12T03:02:25.555Z,6.8
2023-02-12T03:03:28.706Z,6.8
2023-02-12T03:04:31.942Z,6.8
2023-02-12T03:05:35.797Z,6.8
2023-02-12T03:06:38.899Z,6.8
2023-02-12T03:07:42.562Z,6.8
2023-02-12T03:08:45.270Z,6.8
2023-02-12T03:09:48.652Z,6.8
2023-02-12T03:10:52.178Z,6.8
2023-02-12T03:11:54.868Z,6.8
2023-02-12T03:12:58.123Z,6.8
2023-02-12T03:14:01.279Z,6.8
2023-02-12T03:15:05.039Z,6.8
2023-02-12T03:16:08.037Z,6.9
2023-02-12T03:17:12.118Z,6.8
2023-02-12T03:18:15.078Z,6.8
2023-02-12T03:19:18.244Z,6.8
2023-02-12T03:20:22.246Z,6.8
2023-02-12T03:21:25.626Z,6.8
2023-02-12T03:22:28.369Z,6.8
2023-02-12T03:23:31.743Z,6.8
2023-02-12T03:24:35.226Z,6.8
2023-02-12T03:25:38.931Z,6.8
2023-02-12T03:26:42.637Z,6.8
2023-02-12T03:27:45.432Z,6.9
2023-02-12T03:28:49.162Z,6.9
2023-02-12T03:29:51.692Z,6.9
2023-02-12T03:30:55.199Z,6.8
2023-02-12T03:31:59.233Z,6.8
2023-02-12T03:33:02.820Z,6.8
2023-02-12T03:34:05.994Z,6.9
2023-02-12T03:35:08.551Z,6.8
2023-02-12T03:36:12.187Z,6.8
2023-02-12T03:37:15.592Z,6.8
2023-02-12T03:38:19.009Z,6.8
2023-02-12T03:39:22.501Z,6.8
2023-02-12T03:40:26.526Z,6.8
2023-02-12T03:41:29.920Z,6.8
2023-02-12T03:42:33.184Z,6.8
2023-02-12T03:43:36.550Z,6.8
2023-02-12T03:44:39.722Z,6.8
2023-02-12T03:45:43.505Z,6.8
2023-02-12T03:46:47.591Z,6.7
2023-02-12T03:47:51.148Z,6.7
2023-02-12T03:48:54.132Z,6.7
2023-02-12T03:49:57.308Z,6.7
2023-02-12T03:51:00.897Z,6.7
2023-02-12T03:52:04.604Z,6.6
2023-02-12T03:53:08.131Z,6.7
2023-02-12T03:54:11.260Z,6.7
2023-02-12T03:55:14.003Z,6.7
2023-02-12T03:56:17.062Z,6.7
2023-02-12T03:57:20.780Z,6.7
2023-02-12T03:58:23.923Z,6.7
2023-02-12T03:59:26.923Z,6.7
2023-02-12T04:00:29.992Z,6.6
2023-02-12T04:01:33.970Z,6.7
2023-02-12T04:02:37.504Z,6.6
2023-02-12T04:03:40.898Z,6.6
2023-02-12T04:04:44.443Z,6.5
2023-02-12T04:05:47.539Z,6.5
2023-02-12T04:06:50.889Z,6.5
2023-02-12T04:07:54.632Z,6.5
2023-02-12T04:08:57.717Z,6.5
2023-02-12T04:10:00.179Z,6.6
2023-02-12T04:11:03.312Z,6.6
2023-02-12T04:12:06.773Z,6.6
2023-02-12T04:13:10.503Z,6.6
2023-02-12T04:14:13.823Z,6.7
2023-02-12T04:15:17.552Z,6.7
2023-02-12T04:16:21.861Z,6.7
2023-02-12T04:17:26.225Z,6.7
2023-02-12T04:18:29.845Z,6.7
2023-02-12T04:19:33.110Z,6.6
2023-02-12T04:20:36.406Z,6.6
2023-02-12T04:21:39.201Z,6.6
2023-02-12T04:22:42.325Z,6.6
2023-02-12T04:23:45.854Z,6.6
2023-02-12T04:24:49.300Z,6.6
2023-02-12T04:25:52.052Z,6.6
2023-02-12T04:26:55.367Z,6.5
2023-02-12T04:27:59.276Z,6.5
2023-02-12T04:29:02.752Z,6.6
2023-02-12T04:30:05.808Z,6.5
2023-02-12T04:31:09.842Z,6.5
2023-02-12T04:32:12.569Z,6.5
2023-02-12T04:33:15.373Z,6.5
2023-02-12T04:34:19.187Z,6.5
2023-02-12T04:35:22.304Z,6.5
2023-02-12T04:36:25.642Z,6.6
2023-02-12T04:37:29.059Z,6.6
2023-02-12T04:38:32.062Z,6.5
2023-02-12T04:39:35.827Z,6.5
2023-02-12T04:40:39.614Z,6.5
2023-02-12T04:41:42.955Z,6.5
2023-02-12T04:42:46.393Z,6.5
2023-02-12T04:43:49.518Z,6.5
2023-02-12T04:44:52.498Z,6.6
2023-02-12T04:45:57.579Z,6.5
2023-02-12T04:47:01.162Z,6.5
2023-02-12T04:48:03.714Z,6.5
2023-02-12T04:49:07.055Z,6.5
2023-02-12T04:50:10.534Z,6.5
2023-02-12T04:51:13.595Z,6.5
2023-02-12T04:52:16.129Z,6.5
2023-02-12T04:53:19.009Z,6.5
2023-02-12T04:54:22.507Z,6.6
2023-02-12T04:55:25.847Z,6.6
2023-02-12T04:56:29.102Z,6.6
2023-02-12T04:57:31.845Z,6.6
2023-02-12T04:58:35.194Z,6.6
2023-02-12T04:59:38.940Z,6.6
2023-02-12T05:00:42.112Z,6.6
2023-02-12T05:01:45.700Z,6.5
2023-02-12T05:02:49.274Z,6.5
2023-02-12T05:03:52.259Z,6.5
2023-02-12T05:04:55.436Z,6.5
2023-02-12T05:05:59.530Z,6.5
2023-02-12T05:07:03.243Z,6.6
2023-02-12T05:08:06.981Z,6.6
2023-02-12T05:09:09.499Z,6.6
2023-02-12T05:10:12.871Z,6.6
2023-02-12T05:11:16.633Z,6.6
2023-02-12T05:12:20.062Z,6.7
2023-02-12T05:13:23.402Z,6.7
2023-02-12T05:14:26.776Z,6.7
2023-02-12T05:15:30.154Z,6.7
2023-02-12T05:16:32.357Z,6.7
2023-02-12T05:17:35.804Z,6.8
2023-02-12T05:18:38.260Z,6.7
2023-02-12T05:19:41.429Z,6.7
2023-02-12T05:20:44.410Z,6.7
2023-02-12T05:21:47.877Z,6.7
2023-02-12T05:22:51.360Z,6.6
2023-02-12T05:23:54.366Z,6.6
2023-02-12T05:24:57.452Z,6.5
2023-02-12T05:26:00.892Z,6.5
2023-02-12T05:27:04.586Z,6.6
2023-02-12T05:28:08.117Z,6.6
2023-02-12T05:29:11.175Z,6.6
2023-02-12T05:30:13.073Z,6.6
2023-02-12T05:31:21.853Z,6.7
2023-02-12T05:32:25.504Z,6.6
2023-02-12T05:33:28.500Z,6.6
2023-02-12T05:34:31.916Z,6.6
2023-02-12T05:35:34.897Z,6.6
2023-02-12T05:36:37.598Z,6.6
2023-02-12T05:37:41.185Z,6.7
2023-02-12T05:38:44.331Z,6.7
2023-02-12T05:39:47.315Z,6.7
2023-02-12T05:40:50.615Z,6.7
2023-02-12T05:41:53.423Z,6.6
2023-02-12T05:42:57.154Z,6.6
2023-02-12T05:44:00.327Z,6.7
2023-02-12T05:45:02.935Z,6.7
2023-02-12T05:46:06.652Z,6.7
2023-02-12T05:47:09.759Z,6.7
2023-02-12T05:48:12.539Z,6.7
2023-02-12T05:49:15.975Z,6.7
2023-02-12T05:50:19.423Z,6.8
2023-02-12T05:51:22.307Z,6.8
2023-02-12T05:52:26.115Z,6.7
2023-02-12T05:53:29.513Z,6.7
2023-02-12T05:54:32.303Z,6.7
2023-02-12T05:55:35.177Z,6.6
2023-02-12T05:56:38.286Z,6.6
2023-02-12T05:57:42.124Z,6.6
2023-02-12T05:58:45.778Z,6.6
2023-02-12T05:59:48.930Z,6.6
2023-02-12T06:00:51.911Z,6.7
2023-02-12T06:01:54.768Z,6.6
2023-02-12T06:02:58.612Z,6.6
2023-02-12T06:04:02.126Z,6.7
2023-02-12T06:05:05.568Z,6.7
2023-02-12T06:06:08.664Z,6.7
2023-02-12T06:07:11.720Z,6.7
2023-02-12T06:08:15.431Z,6.7
2023-02-12T06:09:19.589Z,6.7
2023-02-12T06:10:22.957Z,6.7
2023-02-12T06:11:26.047Z,6.7
2023-02-12T06:12:29.065Z,6.7
2023-02-12T06:13:31.603Z,6.7
2023-02-12T06:14:35.359Z,6.7
2023-02-12T06:15:39.203Z,6.6
2023-02-12T06:16:42.251Z,6.6
2023-02-12T06:17:45.483Z,6.6
2023-02-12T06:18:48.269Z,6.6
2023-02-12T06:19:51.982Z,6.6
2023-02-12T06:20:55.046Z,6.5
2023-02-12T06:21:57.764Z,6.5
2023-02-12T06:23:00.956Z,6.6
2023-02-12T06:24:03.145Z,6.5
2023-02-12T06:25:07.164Z,6.6
2023-02-12T06:26:10.979Z,6.5
2023-02-12T06:27:14.401Z,6.6
2023-02-12T06:28:17.614Z,6.6
2023-02-12T06:29:21.306Z,6.6
2023-02-12T06:30:24.381Z,6.6
2023-02-12T06:31:28.920Z,6.6
2023-02-12T06:32:32.416Z,6.6
2023-02-12T06:33:35.577Z,6.6
2023-02-12T06:34:38.947Z,6.6
2023-02-12T06:35:42.285Z,6.5
2023-02-12T06:36:44.514Z,6.5
2023-02-12T06:37:47.491Z,6.5
2023-02-12T06:38:50.961Z,6.4
2023-02-12T06:39:53.476Z,6.4
2023-02-12T06:40:56.694Z,6.4
2023-02-12T06:41:59.762Z,6.4
2023-02-12T06:43:02.326Z,6.4
2023-02-12T06:44:05.489Z,6.4
2023-02-12T06:45:09.256Z,6.3
2023-02-12T06:46:12.857Z,6.3
2023-02-12T06:47:16.342Z,6.3
2023-02-12T06:48:19.599Z,6.4
2023-02-12T06:49:22.326Z,6.4
2023-02-12T06:50:25.960Z,6.4
2023-02-12T06:51:28.703Z,6.3
2023-02-12T06:52:32.083Z,6.4
2023-02-12T06:53:34.954Z,6.4
2023-02-12T06:54:37.813Z,6.4
2023-02-12T06:55:40.704Z,6.5
2023-02-12T06:56:44.198Z,6.5
2023-02-12T06:57:47.297Z,6.4
2023-02-12T06:58:50.468Z,6.5
2023-02-12T06:59:53.911Z,6.5
2023-02-12T07:00:57.972Z,6.5
2023-02-12T07:02:01.233Z,6.5
2023-02-12T07:03:04.724Z,6.4
2023-02-12T07:04:07.918Z,6.4
2023-02-12T07:05:11.108Z,6.4
2023-02-12T07:06:14.188Z,6.4
2023-02-12T07:07:17.249Z,6.4
2023-02-12T07:08:20.227Z,6.4
2023-02-12T07:09:23.083Z,6.4
2023-02-12T07:10:26.344Z,6.4
2023-02-12T07:11:29.500Z,6.4
2023-02-12T07:12:33.022Z,6.4
2023-02-12T07:13:36.450Z,6.4
2023-02-12T07:14:39.336Z,6.4
2023-02-12T07:15:42.979Z,6.4
2023-02-12T07:16:46.000Z,6.5
2023-02-12T07:17:49.933Z,6.5
2023-02-12T07:18:53.107Z,6.5
2023-02-12T07:19:56.177Z,6.5
2023-02-12T07:20:58.929Z,6.6
2023-02-12T07:22:02.092Z,6.6
2023-02-12T07:23:05.225Z,6.6
2023-02-12T07:24:08.017Z,6.6
2023-02-12T07:25:11.754Z,6.6
2023-02-12T07:26:14.486Z,6.6
2023-02-12T07:27:17.632Z,6.5
2023-02-12T07:28:21.558Z,6.5
2023-02-12T07:29:24.027Z,6.5
2023-02-12T07:30:27.370Z,6.5
2023-02-12T07:31:31.829Z,6.4
2023-02-12T07:32:35.372Z,6.5
2023-02-12T07:33:39.166Z,6.4
2023-02-12T07:34:42.603Z,6.4
2023-02-12T07:35:46.038Z,6.4
2023-02-12T07:36:49.803Z,6.4
2023-02-12T07:37:53.540Z,6.4
2023-02-12T07:38:56.527Z,6.4
2023-02-12T07:39:58.984Z,6.4
2023-02-12T07:41:02.082Z,6.4
2023-02-12T07:42:05.116Z,6.3
2023-02-12T07:43:08.872Z,6.3
2023-02-12T07:44:12.071Z,6.3
2023-02-12T07:45:15.156Z,6.3
2023-02-12T07:46:19.059Z,6.3
2023-02-12T07:47:22.926Z,6.3
2023-02-12T07:48:26.088Z,6.3
2023-02-12T07:49:29.515Z,6.4
2023-02-12T07:50:39.260Z,6.4
2023-02-12T07:51:42.642Z,6.4
2023-02-12T07:52:46.112Z,6.4
2023-02-12T07:53:48.919Z,6.4
2023-02-12T07:54:52.334Z,6.4
2023-02-12T07:55:57.576Z,6.5
2023-02-12T07:57:01.049Z,6.5
2023-02-12T07:58:04.420Z,6.5
2023-02-12T07:59:07.245Z,6.6
2023-02-12T08:00:10.437Z,6.6
2023-02-12T08:01:13.521Z,6.6
2023-02-12T08:02:16.367Z,6.5
2023-02-12T08:03:19.106Z,6.5
2023-02-12T08:04:22.744Z,6.5
2023-02-12T08:05:25.951Z,6.5
2023-02-12T08:06:29.123Z,6.5
2023-02-12T08:07:32.405Z,6.6
2023-02-12T08:08:34.901Z,6.6
2023-02-12T08:09:37.951Z,6.6
2023-02-12T08:10:41.481Z,6.6
2023-02-12T08:11:45.000Z,6.5
2023-02-12T08:12:48.067Z,6.6
2023-02-12T08:13:51.052Z,6.6
2023-02-12T08:14:53.582Z,6.6
2023-02-12T08:15:58.986Z,6.7
2023-02-12T08:17:02.274Z,6.7
2023-02-12T08:18:05.050Z,6.7
2023-02-12T08:19:27.277Z,6.7
2023-02-12T08:20:30.592Z,6.7
2023-02-12T08:21:33.059Z,6.7
2023-02-12T08:22:36.425Z,6.7
2023-02-12T08:23:39.806Z,6.8
2023-02-12T08:24:43.187Z,6.8
2023-02-12T08:25:45.895Z,6.8
2023-02-12T08:26:49.373Z,6.8
2023-02-12T08:27:52.781Z,6.8
2023-02-12T08:28:55.925Z,6.8
2023-02-12T08:29:58.443Z,6.8
2023-02-12T08:31:02.960Z,6.8
2023-02-12T08:32:07.052Z,6.8
2023-02-12T08:33:10.561Z,6.7
2023-02-12T08:34:13.271Z,6.7
2023-02-12T08:35:16.370Z,6.7
2023-02-12T08:36:18.605Z,6.7
2023-02-12T08:37:21.659Z,6.7
2023-02-12T08:38:24.586Z,6.7
2023-02-12T08:39:28.595Z,6.8
2023-02-12T08:40:32.597Z,6.8
2023-02-12T08:41:35.303Z,6.8
2023-02-12T08:42:38.288Z,6.8
2023-02-12T08:43:41.166Z,6.7
2023-02-12T08:44:44.238Z,6.8
2023-02-12T08:45:47.773Z,6.8
2023-02-12T08:46:51.471Z,6.8
2023-02-12T08:47:54.252Z,6.8
2023-02-12T08:48:56.765Z,6.8
2023-02-12T08:50:00.393Z,6.8
2023-02-12T08:51:03.460Z,6.8
2023-02-12T08:52:06.826Z,6.8
2023-02-12T08:53:10.597Z,6.9
2023-02-12T08:54:13.976Z,6.9
2023-02-12T08:55:17.366Z,7
2023-02-12T08:56:20.148Z,7.1
2023-02-12T08:57:23.570Z,7.1
2023-02-12T08:58:26.633Z,7.2
2023-02-12T08:59:30.018Z,7.2
2023-02-12T09:00:33.718Z,7.2
2023-02-12T09:01:36.791Z,7.2
2023-02-12T09:02:40.532Z,7.2
2023-02-12T09:03:44.264Z,7.3
2023-02-12T09:04:46.699Z,7.3
2023-02-12T09:05:49.681Z,7.3
2023-02-12T09:06:53.076Z,7.3
2023-02-12T09:07:56.430Z,7.3
2023-02-12T09:08:59.474Z,7.4
2023-02-12T09:10:02.503Z,7.4
2023-02-12T09:11:05.972Z,7.4
2023-02-12T09:12:09.404Z,7.5
2023-02-12T09:13:12.377Z,7.5
2023-02-12T09:14:15.208Z,7.5
2023-02-12T09:15:18.302Z,7.6
2023-02-12T09:16:21.279Z,7.5
2023-02-12T09:17:24.969Z,7.6
2023-02-12T09:18:28.407Z,7.6
2023-02-12T09:19:32.397Z,7.6
2023-02-12T09:20:35.768Z,7.7
2023-02-12T09:21:39.173Z,7.7
2023-02-12T09:22:42.497Z,7.7
2023-02-12T09:23:46.264Z,7.8
2023-02-12T09:24:49.709Z,7.8
2023-02-12T09:25:52.772Z,7.8
2023-02-12T09:26:55.889Z,7.9
2023-02-12T09:27:59.577Z,7.9
2023-02-12T09:29:02.212Z,7.9
2023-02-12T09:30:04.772Z,7.9
2023-02-12T09:31:09.280Z,7.9
2023-02-12T09:32:13.018Z,7.9
2023-02-12T09:33:16.148Z,7.9
2023-02-12T09:34:19.308Z,7.9
2023-02-12T09:35:22.036Z,7.9
2023-02-12T09:36:25.319Z,7.9
2023-02-12T09:37:28.162Z,7.9
2023-02-12T09:38:31.670Z,8
2023-02-12T09:39:35.398Z,8.1
2023-02-12T09:40:38.168Z,8.1
2023-02-12T09:41:40.902Z,8.1
2023-02-12T09:42:43.915Z,8.3
2023-02-12T09:43:48.083Z,8.4
2023-02-12T09:44:51.620Z,8.5
2023-02-12T09:45:56.919Z,8.6
2023-02-12T09:47:01.016Z,8.6
2023-02-12T09:48:04.470Z,8.7
2023-02-12T09:49:07.887Z,8.6
2023-02-12T09:50:11.346Z,8.5
2023-02-12T09:51:14.795Z,8.4
2023-02-12T09:52:18.884Z,8.5
2023-02-12T09:53:22.934Z,8.5
2023-02-12T09:54:26.123Z,8.5
2023-02-12T09:55:29.544Z,8.5
2023-02-12T09:56:32.678Z,8.4
2023-02-12T09:57:35.778Z,8.5
2023-02-12T09:58:39.228Z,8.5
2023-02-12T09:59:42.400Z,8.6
2023-02-12T10:00:45.836Z,8.6
2023-02-12T10:01:48.959Z,8.7
2023-02-12T10:02:52.485Z,8.9
2023-02-12T10:03:56.083Z,9.2
2023-02-12T10:05:04.661Z,9.3
2023-02-12T10:06:08.289Z,9.5
2023-02-12T10:07:11.740Z,9.8
2023-02-12T10:08:15.194Z,9.9
2023-02-12T10:09:18.193Z,9.8
2023-02-12T10:10:21.306Z,9.9
2023-02-12T10:11:24.670Z,10
2023-02-12T10:12:28.173Z,10.1
2023-02-12T10:13:31.680Z,10.1
2023-02-12T10:14:35.005Z,10
2023-02-12T10:15:38.578Z,9.8
2023-02-12T10:16:42.330Z,9.6
2023-02-12T10:17:45.765Z,9.6
2023-02-12T10:18:49.267Z,9.6
2023-02-12T10:19:53.006Z,9.7
2023-02-12T10:20:57.709Z,9.8
2023-02-12T10:22:01.918Z,9.9
2023-02-12T10:23:05.036Z,10.1
2023-02-12T10:24:08.529Z,10.1
2023-02-12T10:25:11.711Z,10.2
2023-02-12T10:26:15.173Z,10.3
2023-02-12T10:27:19.003Z,10.4
2023-02-12T10:28:22.492Z,10.3
2023-02-12T10:29:25.684Z,10.3
2023-02-12T10:30:29.001Z,10.3
2023-02-12T10:31:33.312Z,10.3
2023-02-12T10:32:36.953Z,10.2
2023-02-12T10:33:41.243Z,10.2
2023-02-12T10:34:44.580Z,10.2
2023-02-12T10:35:47.718Z,10.2
2023-02-12T10:36:50.937Z,10.2
2023-02-12T10:37:54.971Z,10.1
2023-02-12T10:38:58.263Z,9.9
2023-02-12T10:40:02.085Z,9.9
2023-02-12T10:41:05.607Z,9.8
2023-02-12T10:42:08.469Z,9.7
2023-02-12T10:43:12.006Z,9.7
2023-02-12T10:44:15.406Z,9.6
2023-02-12T10:45:19.172Z,9.8
2023-02-12T10:46:22.782Z,9.8
2023-02-12T10:47:25.879Z,9.9
2023-02-12T10:48:30.496Z,9.9
2023-02-12T10:49:34.331Z,9.9
2023-02-12T10:50:36.534Z,10
2023-02-12T10:51:39.227Z,10
2023-02-12T10:52:42.353Z,10.1
2023-02-12T10:53:46.137Z,10
2023-02-12T10:54:48.946Z,10
2023-02-12T10:55:52.760Z,10
2023-02-12T10:56:55.972Z,10
2023-02-12T10:57:59.068Z,10
2023-02-12T10:59:02.557Z,10.1
2023-02-12T11:00:05.313Z,10.1
2023-02-12T11:01:08.375Z,10.2
2023-02-12T11:02:12.404Z,10.3
2023-02-12T11:03:15.784Z,10.2
2023-02-12T11:04:18.881Z,10.2
2023-02-12T11:05:21.883Z,10.1
2023-02-12T11:06:24.923Z,10
2023-02-12T11:07:28.130Z,9.9
2023-02-12T11:08:31.142Z,9.9
2023-02-12T11:09:34.276Z,9.9
2023-02-12T11:10:37.044Z,9.9
2023-02-12T11:11:40.114Z,9.9
2023-02-12T11:12:42.535Z,9.9
2023-02-12T11:13:45.659Z,9.9
2023-02-12T11:14:49.105Z,10
2023-02-12T11:15:53.438Z,10.1
2023-02-12T11:16:56.815Z,10.1
2023-02-12T11:18:00.591Z,10.2
2023-02-12T11:19:04.507Z,10.2
2023-02-12T11:20:08.314Z,10.2
2023-02-12T11:21:12.057Z,10.3
2023-02-12T11:22:15.140Z,10.3
2023-02-12T11:23:18.932Z,10.3
2023-02-12T11:24:22.585Z,10.4
2023-02-12T11:25:26.372Z,10.4
2023-02-12T11:26:29.522Z,10.4
2023-02-12T11:27:33.185Z,10.4
2023-02-12T11:28:36.303Z,10.5
2023-02-12T11:29:39.688Z,10.5
2023-02-12T11:30:43.275Z,10.4
2023-02-12T11:31:47.049Z,10.4
2023-02-12T11:32:50.815Z,10.4
2023-02-12T11:33:54.384Z,10.5
2023-02-12T11:34:58.339Z,10.5
2023-02-12T11:36:08.207Z,10.5
2023-02-12T11:37:12.336Z,10.6
2023-02-12T11:38:16.062Z,10.7
2023-02-12T11:39:19.450Z,10.7
2023-02-12T11:40:22.801Z,10.8
2023-02-12T11:41:25.982Z,10.8
2023-02-12T11:42:29.279Z,10.8
2023-02-12T11:43:32.869Z,10.7
2023-02-12T11:44:35.481Z,10.8
2023-02-12T11:45:38.637Z,10.8
2023-02-12T11:46:42.564Z,10.8
2023-02-12T11:47:45.404Z,10.9
2023-02-12T11:48:49.069Z,10.9
2023-02-12T11:49:51.902Z,10.8
2023-02-12T11:50:55.209Z,10.8
2023-02-12T11:51:57.928Z,10.7
2023-02-12T11:53:00.816Z,10.7
2023-02-12T11:54:04.293Z,10.6
2023-02-12T11:55:07.102Z,10.8
2023-02-12T11:56:10.450Z,10.9
2023-02-12T11:57:14.163Z,11
2023-02-12T11:58:17.924Z,10.9
2023-02-12T11:59:21.332Z,11
2023-02-12T12:00:24.119Z,11
2023-02-12T12:01:27.875Z,11
2023-02-12T12:02:31.561Z,11.1
2023-02-12T12:03:35.347Z,11.1
2023-02-12T12:04:38.466Z,11.2
2023-02-12T12:05:41.545Z,11.3
2023-02-12T12:06:44.492Z,11.3
2023-02-12T12:07:47.849Z,11.4
2023-02-12T12:08:51.276Z,11.3
2023-02-12T12:09:54.912Z,11.2
2023-02-12T12:10:57.983Z,11.2
2023-02-12T12:12:01.134Z,11.2
2023-02-12T12:13:04.469Z,11.2
2023-02-12T12:14:07.366Z,11.2
2023-02-12T12:15:10.832Z,11.2
2023-02-12T12:16:14.420Z,11.2
2023-02-12T12:17:18.494Z,11.2
2023-02-12T12:18:22.180Z,11.3
2023-02-12T12:19:29.117Z,11.2
2023-02-12T12:20:32.013Z,11.1
2023-02-12T12:21:36.084Z,11.1
2023-02-12T12:22:38.970Z,11
2023-02-12T12:23:43.275Z,11
2023-02-12T12:24:46.568Z,11.1
2023-02-12T12:25:49.721Z,11.1
2023-02-12T12:26:52.938Z,11.1
2023-02-12T12:27:55.927Z,11.1
2023-02-12T12:29:00.018Z,11.2
2023-02-12T12:30:02.205Z,11.2
2023-02-12T12:31:06.077Z,11.3
2023-02-12T12:32:08.416Z,11.3
2023-02-12T12:33:11.493Z,11.3
2023-02-12T12:34:14.781Z,11.2
2023-02-12T12:35:18.235Z,11.2
2023-02-12T12:36:21.624Z,11.1
2023-02-12T12:37:25.385Z,11
2023-02-12T12:38:27.835Z,11
2023-02-12T12:39:30.918Z,10.9
2023-02-12T12:40:34.218Z,10.9
2023-02-12T12:41:37.671Z,10.8
2023-02-12T12:42:40.800Z,10.8
2023-02-12T12:43:44.059Z,10.8
2023-02-12T12:44:47.523Z,10.7
2023-02-12T12:45:51.001Z,10.6
2023-02-12T12:46:55.147Z,10.6
2023-02-12T12:47:58.307Z,10.6
2023-02-12T12:49:02.029Z,10.5
2023-02-12T12:50:06.175Z,10.5
2023-02-12T12:51:09.848Z,10.5
2023-02-12T12:52:13.173Z,10.5
2023-02-12T12:53:16.645Z,10.5
2023-02-12T12:54:19.738Z,10.5
2023-02-12T12:55:23.314Z,10.5
2023-02-12T12:56:26.740Z,10.5
2023-02-12T12:57:29.811Z,10.6
2023-02-12T12:58:33.153Z,10.5
2023-02-12T12:59:36.257Z,10.5
2023-02-12T13:00:39.654Z,10.4
2023-02-12T13:01:42.705Z,10.4
2023-02-12T13:02:46.468Z,10.4
2023-02-12T13:03:50.438Z,10.4
2023-02-12T13:04:53.551Z,10.4
2023-02-12T13:05:59.049Z,10.3
2023-02-12T13:07:02.114Z,10.2
2023-02-12T13:08:05.411Z,10.1
2023-02-12T13:09:08.804Z,10.1
2023-02-12T13:10:11.960Z,10.1
2023-02-12T13:11:15.055Z,10
2023-02-12T13:12:17.917Z,10
2023-02-12T13:13:21.309Z,9.9
2023-02-12T13:14:24.706Z,9.9
2023-02-12T13:15:27.850Z,9.8
2023-02-12T13:16:31.298Z,9.8
2023-02-12T13:17:34.192Z,9.7
2023-02-12T13:18:37.946Z,9.6
2023-02-12T13:19:40.093Z,9.7
2023-02-12T13:20:43.084Z,9.7
2023-02-12T13:21:46.833Z,9.6
2023-02-12T13:22:50.006Z,9.7
2023-02-12T13:23:53.343Z,9.6
2023-02-12T13:24:56.266Z,9.6
2023-02-12T13:26:00.275Z,9.6
2023-02-12T13:27:03.544Z,9.6
2023-02-12T13:28:06.946Z,9.6
2023-02-12T13:29:10.177Z,9.6
2023-02-12T13:30:13.271Z,9.7
2023-02-12T13:31:36.100Z,9.7
2023-02-12T13:32:40.047Z,9.8
2023-02-12T13:33:43.171Z,9.7
2023-02-12T13:34:46.251Z,9.7
2023-02-12T13:35:50.000Z,9.7
2023-02-12T13:36:53.635Z,9.7
2023-02-12T13:37:57.041Z,9.6
2023-02-12T13:38:59.495Z,9.6
2023-02-12T13:40:02.887Z,9.6
2023-02-12T13:41:06.338Z,9.6
2023-02-12T13:42:09.485Z,9.5
2023-02-12T13:43:12.564Z,9.6
2023-02-12T13:44:16.025Z,9.6
2023-02-12T13:45:18.582Z,9.6
2023-02-12T13:46:22.283Z,9.6
2023-02-12T13:47:25.444Z,9.5
2023-02-12T13:48:29.173Z,9.6
2023-02-12T13:49:32.519Z,9.6
2023-02-12T13:50:35.762Z,9.6
2023-02-12T13:51:39.220Z,9.6
2023-02-12T13:52:43.260Z,9.5
2023-02-12T13:53:46.777Z,9.6
2023-02-12T13:54:50.654Z,9.6
2023-02-12T13:55:54.213Z,9.6
2023-02-12T13:56:58.476Z,9.6
2023-02-12T13:58:01.919Z,9.6
2023-02-12T13:59:05.896Z,9.6
2023-02-12T14:00:08.681Z,9.6
2023-02-12T14:01:11.996Z,9.5
2023-02-12T14:02:15.653Z,9.5
2023-02-12T14:03:19.449Z,9.5
2023-02-12T14:04:22.870Z,9.5
2023-02-12T14:05:26.370Z,9.5
2023-02-12T14:06:29.098Z,9.5
2023-02-12T14:07:32.004Z,9.6
2023-02-12T14:08:35.808Z,9.6
2023-02-12T14:09:39.395Z,9.6
2023-02-12T14:10:42.811Z,9.6
2023-02-12T14:11:46.478Z,9.7
2023-02-12T14:12:49.872Z,9.7
2023-02-12T14:13:53.200Z,9.7
2023-02-12T14:14:56.572Z,9.6
2023-02-12T14:16:01.835Z,9.6
2023-02-12T14:17:04.620Z,9.6
2023-02-12T14:18:08.003Z,9.5
2023-02-12T14:19:11.691Z,9.5
2023-02-12T14:20:15.486Z,9.5
2023-02-12T14:21:18.861Z,9.5
2023-02-12T14:22:22.024Z,9.5
2023-02-12T14:23:25.725Z,9.5
2023-02-12T14:24:29.450Z,9.5
2023-02-12T14:25:33.140Z,9.5
2023-02-12T14:26:36.571Z,9.5
2023-02-12T14:27:39.689Z,9.5
2023-02-12T14:28:42.560Z,9.5
2023-02-12T14:29:45.996Z,9.5
2023-02-12T14:30:48.847Z,9.5
2023-02-12T14:31:53.612Z,9.5